createdAt,value
2018-12-16T00:01:36.941Z,101986.34
2018-12-16T00:04:05.225Z,101981.96
2018-12-16T00:06:33.555Z,101981.02
2018-12-16T00:09:01.889Z,101968.19
2018-12-16T00:11:30.183Z,101975.75
2018-12-16T00:13:58.429Z,101962.91
2018-12-16T00:16:26.753Z,101964.67
2018-12-16T00:18:55.142Z,101967.84
2018-12-16T00:21:23.495Z,101959.95
2018-12-16T00:23:51.769Z,101958.05
2018-12-16T00:26:20.015Z,101965.45
2018-12-16T00:28:48.312Z,101961.58
2018-12-16T00:31:16.664Z,101951.23
2018-12-16T00:33:44.937Z,101942.27
2018-12-16T00:36:13.197Z,101932.81
2018-12-16T00:38:41.451Z,101934.20
2018-12-16T00:41:09.714Z,101946.78
2018-12-16T00:43:37.940Z,101933.26
2018-12-16T00:46:06.218Z,101938.68
2018-12-16T00:48:34.896Z,101948.10
2018-12-16T00:51:03.158Z,101939.95
2018-12-16T00:53:31.517Z,101931.17
2018-12-16T00:55:59.736Z,101939.83
2018-12-16T00:58:28.014Z,101926.16
2018-12-16T01:00:56.313Z,101929.14
2018-12-16T01:03:24.583Z,101939.38
2018-12-16T01:05:52.916Z,101944.06
2018-12-16T01:08:22.036Z,101935.36
2018-12-16T01:10:50.336Z,101924.52
2018-12-16T01:13:18.557Z,101920.24
2018-12-16T01:15:46.797Z,101912.87
2018-12-16T01:18:15.100Z,101912.75
2018-12-16T01:20:43.657Z,101906.47
2018-12-16T01:23:11.998Z,101915.13
2018-12-16T01:25:40.213Z,101919.34
2018-12-16T01:28:08.529Z,101908.16
2018-12-16T01:30:36.819Z,101916.11
2018-12-16T01:33:05.043Z,101908.98
2018-12-16T01:35:33.282Z,101916.44
2018-12-16T01:38:01.608Z,101915.50
2018-12-16T01:40:29.928Z,101904.16
2018-12-16T01:42:58.330Z,101908.16
2018-12-16T01:45:26.590Z,101902.56
2018-12-16T01:47:54.980Z,101904.08
2018-12-16T01:50:23.308Z,101892.65
2018-12-16T01:52:51.656Z,101888.16
2018-12-16T01:55:19.908Z,101880.64
2018-12-16T01:57:48.225Z,101877.09
2018-12-16T02:00:16.530Z,101863.34
2018-12-16T02:02:44.987Z,101869.23
2018-12-16T02:05:13.352Z,101873.59
2018-12-16T02:07:41.662Z,101844.05
2018-12-16T02:10:10.774Z,101834.05
2018-12-16T02:12:39.112Z,101825.70
2018-12-16T02:18:00.828Z,101815.38
2018-12-16T02:20:29.146Z,101807.99
2018-12-16T02:22:57.555Z,101805.30
2018-12-16T02:25:25.782Z,101805.89
2018-12-16T02:27:54.040Z,101793.77
2018-12-16T02:30:28.509Z,101806.47
2018-12-16T02:32:57.015Z,101797.05
2018-12-16T02:35:25.329Z,101789.17
2018-12-16T02:37:53.601Z,101771.75
2018-12-16T02:40:21.862Z,101788.34
2018-12-16T02:42:50.295Z,101784.23
2018-12-16T02:45:19.417Z,101782.11
2018-12-16T02:47:49.201Z,101782.00
2018-12-16T02:50:17.467Z,101794.41
2018-12-16T02:52:45.723Z,101779.80
2018-12-16T02:55:14.019Z,101774.70
2018-12-16T02:57:42.264Z,101779.05
2018-12-16T03:00:10.749Z,101765.52
2018-12-16T03:02:39.088Z,101763.59
2018-12-16T03:05:07.418Z,101761.16
2018-12-16T03:07:35.686Z,101765.05
2018-12-16T03:10:04.277Z,101750.30
2018-12-16T03:12:32.593Z,101750.80
2018-12-16T03:15:00.915Z,101742.33
2018-12-16T03:17:29.187Z,101732.08
2018-12-16T03:19:57.413Z,101749.81
2018-12-16T03:22:25.630Z,101737.33
2018-12-16T03:24:53.891Z,101734.41
2018-12-16T03:27:22.215Z,101732.17
2018-12-16T03:29:50.464Z,101726.52
2018-12-16T03:32:18.810Z,101727.69
2018-12-16T03:34:47.191Z,101723.45
2018-12-16T03:37:15.434Z,101707.97
2018-12-16T03:39:43.689Z,101719.34
2018-12-16T03:42:12.130Z,101699.34
2018-12-16T03:44:40.446Z,101695.37
2018-12-16T03:47:08.698Z,101691.13
2018-12-16T03:49:37.040Z,101679.24
2018-12-16T03:52:07.276Z,101679.01
2018-12-16T03:54:35.815Z,101665.35
2018-12-16T03:57:04.282Z,101661.47
2018-12-16T03:59:32.514Z,101657.48
2018-12-16T04:02:00.761Z,101653.84
2018-12-16T04:04:29.098Z,101649.12
2018-12-16T04:06:57.299Z,101644.42
2018-12-16T04:09:25.590Z,101641.59
2018-12-16T04:11:53.972Z,101631.69
2018-12-16T04:14:22.223Z,101630.05
2018-12-16T04:16:50.471Z,101615.91
2018-12-16T04:19:25.167Z,101609.20
2018-12-16T04:21:53.513Z,101596.00
2018-12-16T04:24:21.784Z,101586.34
2018-12-16T04:26:50.035Z,101581.63
2018-12-16T04:29:18.283Z,101583.53
2018-12-16T04:31:46.595Z,101581.77
2018-12-16T04:34:14.830Z,101568.09
2018-12-16T04:36:43.058Z,101569.72
2018-12-16T04:39:11.298Z,101570.20
2018-12-16T04:41:39.508Z,101574.08
2018-12-16T04:44:07.736Z,101587.52
2018-12-16T04:46:35.981Z,101585.41
2018-12-16T04:49:04.285Z,101584.44
2018-12-16T04:51:32.521Z,101574.31
2018-12-16T04:54:00.847Z,101585.16
2018-12-16T04:56:29.164Z,101589.14
2018-12-16T04:58:57.409Z,101576.03
2018-12-16T05:01:25.630Z,101568.41
2018-12-16T05:03:53.942Z,101564.75
2018-12-16T05:06:22.153Z,101582.79
2018-12-16T05:08:50.383Z,101566.39
2018-12-16T05:11:18.617Z,101564.63
2018-12-16T05:13:46.856Z,101569.94
2018-12-16T05:16:15.111Z,101560.36
2018-12-16T05:18:43.389Z,101570.28
2018-12-16T05:21:11.642Z,101551.89
2018-12-16T05:23:42.020Z,101549.08
2018-12-16T05:26:10.156Z,101549.42
2018-12-16T05:28:38.495Z,101545.63
2018-12-16T05:31:06.711Z,101538.70
2018-12-16T05:33:34.958Z,101542.53
2018-12-16T05:36:03.176Z,101540.20
2018-12-16T05:38:31.515Z,101532.61
2018-12-16T05:40:59.732Z,101529.73
2018-12-16T05:43:27.954Z,101524.73
2018-12-16T05:45:56.396Z,101522.62
2018-12-16T05:48:24.636Z,101526.03
2018-12-16T05:50:52.844Z,101516.27
2018-12-16T05:53:21.088Z,101511.52
2018-12-16T05:58:16.650Z,101502.35
2018-12-16T06:00:44.946Z,101492.46
2018-12-16T06:03:13.165Z,101489.01
2018-12-16T06:05:41.384Z,101469.69
2018-12-16T06:08:09.616Z,101478.51
2018-12-16T06:10:37.882Z,101457.42
2018-12-16T06:13:06.121Z,101457.33
2018-12-16T06:15:34.373Z,101466.75
2018-12-16T06:18:02.665Z,101470.64
2018-12-16T06:20:31.065Z,101470.30
2018-12-16T06:22:59.294Z,101472.62
2018-12-16T06:25:27.508Z,101466.74
2018-12-16T06:27:55.748Z,101467.30
2018-12-16T06:30:24.718Z,101459.54
2018-12-16T06:32:53.004Z,101473.45
2018-12-16T06:35:21.356Z,101480.41
2018-12-16T06:37:49.629Z,101477.46
2018-12-16T06:40:17.881Z,101464.37
2018-12-16T06:42:46.125Z,101455.78
2018-12-16T06:45:14.491Z,101476.98
2018-12-16T06:47:42.799Z,101471.25
2018-12-16T06:50:11.009Z,101476.17
2018-12-16T06:52:39.445Z,101463.89
2018-12-16T06:55:07.747Z,101464.63
2018-12-16T06:57:35.995Z,101467.23
2018-12-16T07:00:04.889Z,101450.63
2018-12-16T07:02:33.161Z,101459.19
2018-12-16T07:05:01.512Z,101449.98
2018-12-16T07:07:29.774Z,101455.91
2018-12-16T07:09:58.023Z,101460.27
2018-12-16T07:12:26.340Z,101450.50
2018-12-16T07:14:54.637Z,101457.24
2018-12-16T07:17:22.877Z,101448.73
2018-12-16T07:19:51.221Z,101467.70
2018-12-16T07:22:19.491Z,101461.91
2018-12-16T07:24:47.841Z,101457.67
2018-12-16T07:27:16.222Z,101469.44
2018-12-16T07:29:44.585Z,101472.50
2018-12-16T07:32:12.924Z,101478.16
2018-12-16T07:34:41.400Z,101457.46
2018-12-16T07:37:09.757Z,101471.12
2018-12-16T07:39:37.992Z,101458.36
2018-12-16T07:42:06.428Z,101462.30
2018-12-16T07:44:34.920Z,101471.59
2018-12-16T07:47:03.386Z,101471.81
2018-12-16T07:49:31.623Z,101463.43
2018-12-16T07:51:59.826Z,101461.61
2018-12-16T07:54:28.128Z,101464.02
2018-12-16T07:56:56.390Z,101472.03
2018-12-16T07:59:24.703Z,101454.73
2018-12-16T08:01:53.048Z,101448.59
2018-12-16T08:04:21.264Z,101440.48
2018-12-16T08:06:49.509Z,101447.05
2018-12-16T08:09:17.810Z,101442.86
2018-12-16T08:11:46.164Z,101432.96
2018-12-16T08:14:14.449Z,101439.75
2018-12-16T08:16:42.673Z,101446.48
2018-12-16T08:19:10.963Z,101445.92
2018-12-16T08:21:39.549Z,101421.38
2018-12-16T08:24:07.845Z,101433.05
2018-12-16T08:26:36.117Z,101438.11
2018-12-16T08:29:04.469Z,101425.48
2018-12-16T08:31:32.817Z,101419.74
2018-12-16T08:34:01.080Z,101425.48
2018-12-16T08:36:29.335Z,101413.34
2018-12-16T08:38:57.586Z,101408.88
2018-12-16T08:41:25.841Z,101415.53
2018-12-16T08:43:54.160Z,101408.51
2018-12-16T08:46:22.448Z,101408.28
2018-12-16T08:48:50.678Z,101407.20
2018-12-16T08:51:18.894Z,101415.27
2018-12-16T08:53:47.133Z,101413.29
2018-12-16T08:56:15.518Z,101405.90
2018-12-16T08:58:43.781Z,101404.55
2018-12-16T09:01:12.014Z,101409.33
2018-12-16T09:03:40.362Z,101398.95
2018-12-16T09:09:02.422Z,101399.91
2018-12-16T09:14:23.589Z,101420.67
2018-12-16T09:16:51.872Z,101404.48
2018-12-16T09:19:20.200Z,101409.83
2018-12-16T09:21:48.566Z,101403.69
2018-12-16T09:24:16.821Z,101405.64
2018-12-16T09:26:45.137Z,101404.55
2018-12-16T09:29:13.455Z,101408.30
2018-12-16T09:31:41.762Z,101404.16
2018-12-16T09:34:10.301Z,101400.75
2018-12-16T09:36:38.876Z,101403.95
2018-12-16T09:39:08.217Z,101399.72
2018-12-16T09:41:36.593Z,101380.53
2018-12-16T09:44:04.964Z,101387.09
2018-12-16T09:46:33.392Z,101375.61
2018-12-16T09:49:01.761Z,101385.80
2018-12-16T09:51:30.097Z,101367.64
2018-12-16T09:53:58.358Z,101374.47
2018-12-16T09:56:26.653Z,101360.32
2018-12-16T09:58:54.926Z,101358.30
2018-12-16T10:01:23.194Z,101342.80
2018-12-16T10:03:51.457Z,101344.23
2018-12-16T10:06:19.742Z,101343.01
2018-12-16T10:08:48.271Z,101339.99
2018-12-16T10:11:16.577Z,101344.02
2018-12-16T10:13:44.829Z,101355.89
2018-12-16T10:16:13.088Z,101349.94
2018-12-16T10:18:41.312Z,101353.96
2018-12-16T10:21:09.685Z,101343.62
2018-12-16T10:23:44.823Z,101338.64
2018-12-16T10:26:13.111Z,101328.41
2018-12-16T10:28:41.393Z,101333.33
2018-12-16T10:31:09.652Z,101323.69
2018-12-16T10:33:37.977Z,101327.11
2018-12-16T10:36:06.447Z,101316.47
2018-12-16T10:38:34.719Z,101321.92
2018-12-16T10:41:03.044Z,101307.80
2018-12-16T10:43:31.451Z,101310.67
2018-12-16T10:45:59.873Z,101309.56
2018-12-16T10:48:28.164Z,101307.39
2018-12-16T10:50:56.447Z,101309.09
2018-12-16T10:53:24.852Z,101298.45
2018-12-16T10:55:53.216Z,101303.61
2018-12-16T10:58:21.475Z,101298.23
2018-12-16T11:00:55.213Z,101295.16
2018-12-16T11:03:23.733Z,101292.36
2018-12-16T11:05:52.022Z,101295.50
2018-12-16T11:08:21.181Z,101291.07
2018-12-16T11:10:49.436Z,101275.70
2018-12-16T11:13:17.699Z,101278.67
2018-12-16T11:15:46.034Z,101284.75
2018-12-16T11:18:14.305Z,101290.90
2018-12-16T11:20:42.560Z,101288.33
2018-12-16T11:23:10.806Z,101285.13
2018-12-16T11:25:44.119Z,101287.23
2018-12-16T11:28:12.335Z,101282.13
2018-12-16T11:30:40.622Z,101274.48
2018-12-16T11:33:08.926Z,101274.07
2018-12-16T11:35:37.712Z,101267.75
2018-12-16T11:38:06.389Z,101274.00
2018-12-16T11:40:35.168Z,101276.12
2018-12-16T11:43:03.692Z,101270.80
2018-12-16T11:45:32.386Z,101264.99
2018-12-16T11:48:00.891Z,101264.27
2018-12-16T11:50:29.206Z,101256.63
2018-12-16T11:52:57.473Z,101245.06
2018-12-16T11:58:19.035Z,101245.09
2018-12-16T12:00:47.744Z,101240.92
2018-12-16T12:03:16.186Z,101240.37
2018-12-16T12:05:45.326Z,101242.70
2018-12-16T12:08:14.853Z,101240.41
2018-12-16T12:10:43.927Z,101232.55
2018-12-16T12:13:13.167Z,101230.56
2018-12-16T12:15:41.781Z,101220.94
2018-12-16T12:18:10.191Z,101218.20
2018-12-16T12:20:38.612Z,101213.08
2018-12-16T12:23:06.945Z,101219.84
2018-12-16T12:25:35.810Z,101235.67
2018-12-16T12:28:05.223Z,101216.34
2018-12-16T12:30:33.897Z,101218.34
2018-12-16T12:33:02.316Z,101216.16
2018-12-16T12:35:30.856Z,101231.05
2018-12-16T12:37:59.381Z,101216.50
2018-12-16T12:40:27.728Z,101215.47
2018-12-16T12:42:56.150Z,101208.77
2018-12-16T12:45:24.608Z,101213.48
2018-12-16T12:47:53.322Z,101220.31
2018-12-16T12:50:21.684Z,101212.27
2018-12-16T12:52:50.041Z,101211.42
2018-12-16T12:55:18.327Z,101210.63
2018-12-16T12:57:46.629Z,101211.86
2018-12-16T13:00:15.664Z,101213.06
2018-12-16T13:02:44.274Z,101212.87
2018-12-16T13:05:13.108Z,101219.77
2018-12-16T13:07:41.391Z,101209.85
2018-12-16T13:10:11.745Z,101205.76
2018-12-16T13:12:40.602Z,101214.66
2018-12-16T13:15:09.096Z,101204.08
2018-12-16T13:17:37.356Z,101206.44
2018-12-16T13:20:06.228Z,101207.59
2018-12-16T13:22:34.671Z,101202.14
2018-12-16T13:25:14.471Z,101203.91
2018-12-16T13:27:42.718Z,101200.31
2018-12-16T13:30:11.128Z,101199.63
2018-12-16T13:32:39.373Z,101199.13
2018-12-16T13:35:07.713Z,101194.08
2018-12-16T13:37:35.967Z,101197.16
2018-12-16T13:40:04.510Z,101196.41
2018-12-16T13:42:32.825Z,101196.67
2018-12-16T13:45:01.078Z,101191.30
2018-12-16T13:47:29.315Z,101183.18
2018-12-16T13:49:57.619Z,101182.55
2018-12-16T13:52:25.923Z,101186.73
2018-12-16T13:54:54.213Z,101178.73
2018-12-16T13:57:22.512Z,101186.43
2018-12-16T13:59:50.750Z,101190.00
2018-12-16T14:02:18.991Z,101187.55
2018-12-16T14:04:47.417Z,101189.91
2018-12-16T14:07:15.774Z,101192.64
2018-12-16T14:09:44.069Z,101193.88
2018-12-16T14:12:12.588Z,101195.80
2018-12-16T14:14:41.111Z,101197.30
2018-12-16T14:17:09.483Z,101190.27
2018-12-16T14:19:37.921Z,101196.34
2018-12-16T14:22:06.320Z,101187.95
2018-12-16T14:24:35.290Z,101201.48
2018-12-16T14:27:04.638Z,101213.02
2018-12-16T14:29:33.350Z,101203.12
2018-12-16T14:32:02.125Z,101201.39
2018-12-16T14:38:49.575Z,101204.26
2018-12-16T14:41:17.916Z,101213.93
2018-12-16T14:43:46.253Z,101210.59
2018-12-16T14:46:14.545Z,101212.98
2018-12-16T14:48:42.846Z,101223.55
2018-12-16T14:51:11.212Z,101208.12
2018-12-16T14:53:39.680Z,101221.00
2018-12-16T14:56:07.981Z,101212.53
2018-12-16T14:58:36.457Z,101210.95
2018-12-16T15:01:04.800Z,101214.58
2018-12-16T15:03:33.968Z,101220.92
2018-12-16T15:06:02.404Z,101227.81
2018-12-16T15:08:30.756Z,101228.98
2018-12-16T15:11:06.239Z,101225.63
2018-12-16T15:13:34.712Z,101222.36
2018-12-16T15:16:03.015Z,101226.72
2018-12-16T15:18:31.429Z,101219.77
2018-12-16T15:20:59.687Z,101216.02
2018-12-16T15:23:27.974Z,101221.67
2018-12-16T15:26:02.029Z,101219.36
2018-12-16T15:28:26.585Z,101226.05
2018-12-16T15:30:55.903Z,101233.75
2018-12-16T15:33:24.969Z,101227.27
2018-12-16T15:35:53.471Z,101228.30
2018-12-16T15:38:21.867Z,101233.18
2018-12-16T15:40:56.371Z,101222.26
2018-12-16T15:43:25.020Z,101221.72
2018-12-16T15:45:53.504Z,101219.80
2018-12-16T15:48:21.834Z,101226.70
2018-12-16T15:50:50.157Z,101220.42
2018-12-16T15:53:18.635Z,101218.51
2018-12-16T15:55:46.945Z,101225.61
2018-12-16T15:58:15.195Z,101215.50
2018-12-16T16:00:43.513Z,101220.17
2018-12-16T16:03:11.905Z,101224.41
2018-12-16T16:05:40.404Z,101222.63
2018-12-16T16:08:08.675Z,101228.91
2018-12-16T16:10:37.165Z,101226.66
2018-12-16T16:13:05.475Z,101228.09
2018-12-16T16:15:33.784Z,101231.16
2018-12-16T16:18:02.144Z,101233.52
2018-12-16T16:20:30.511Z,101240.28
2018-12-16T16:22:58.826Z,101240.48
2018-12-16T16:25:27.098Z,101236.22
2018-12-16T16:27:55.368Z,101240.48
2018-12-16T16:30:23.664Z,101251.78
2018-12-16T16:32:52.000Z,101256.19
2018-12-16T16:35:20.258Z,101262.36
2018-12-16T16:37:49.067Z,101266.80
2018-12-16T16:40:17.804Z,101263.11
2018-12-16T16:42:46.196Z,101258.98
2018-12-16T16:45:21.244Z,101261.64
2018-12-16T16:47:49.593Z,101255.64
2018-12-16T16:50:17.975Z,101250.59
2018-12-16T16:52:46.222Z,101252.70
2018-12-16T16:55:14.640Z,101254.13
2018-12-16T16:57:43.105Z,101253.52
2018-12-16T17:00:11.580Z,101263.42
2018-12-16T17:02:39.871Z,101269.42
2018-12-16T17:05:08.195Z,101260.08
2018-12-16T17:07:36.495Z,101269.67
2018-12-16T17:10:05.916Z,101267.55
2018-12-16T17:12:34.322Z,101272.88
2018-12-16T17:15:02.983Z,101271.52
2018-12-16T17:20:24.565Z,101262.33
2018-12-16T17:25:48.383Z,101249.73
2018-12-16T17:28:15.910Z,101253.77
2018-12-16T17:30:44.231Z,101251.48
2018-12-16T17:33:12.514Z,101260.66
2018-12-16T17:35:40.847Z,101264.10
2018-12-16T17:38:09.174Z,101262.53
2018-12-16T17:40:37.492Z,101257.81
2018-12-16T17:43:05.964Z,101262.11
2018-12-16T17:45:34.235Z,101259.12
2018-12-16T17:50:55.625Z,101275.50
2018-12-16T17:56:16.830Z,101274.42
2018-12-16T17:58:45.127Z,101275.44
2018-12-16T18:01:13.424Z,101279.83
2018-12-16T18:03:42.131Z,101282.88
2018-12-16T18:06:10.538Z,101283.98
2018-12-16T18:08:38.828Z,101275.93
2018-12-16T18:11:07.143Z,101278.79
2018-12-16T18:13:35.447Z,101272.17
2018-12-16T18:16:03.729Z,101271.55
2018-12-16T18:18:32.082Z,101278.77
2018-12-16T18:21:00.336Z,101279.94
2018-12-16T18:23:29.827Z,101274.27
2018-12-16T18:25:58.455Z,101282.42
2018-12-16T18:28:26.926Z,101282.27
2018-12-16T18:30:55.324Z,101288.27
2018-12-16T18:33:27.273Z,101281.84
2018-12-16T18:35:55.592Z,101286.34
2018-12-16T18:38:23.947Z,101283.61
2018-12-16T18:40:52.227Z,101277.16
2018-12-16T18:43:20.581Z,101278.66
2018-12-16T18:45:48.856Z,101279.96
2018-12-16T18:48:17.151Z,101281.73
2018-12-16T18:50:46.218Z,101284.94
2018-12-16T18:53:14.448Z,101286.20
2018-12-16T18:55:42.735Z,101290.91
2018-12-16T18:58:11.015Z,101290.47
2018-12-16T19:00:39.434Z,101290.39
2018-12-16T19:03:07.780Z,101290.73
2018-12-16T19:05:36.263Z,101294.83
2018-12-16T19:08:04.753Z,101288.14
2018-12-16T19:10:34.397Z,101281.31
2018-12-16T19:15:35.963Z,101291.73
2018-12-16T19:18:04.824Z,101290.65
2018-12-16T19:20:33.491Z,101293.93
2018-12-16T19:23:01.760Z,101295.99
2018-12-16T19:25:30.127Z,101299.12
2018-12-16T19:27:58.487Z,101298.56
2018-12-16T19:30:26.881Z,101301.09
2018-12-16T19:32:55.162Z,101299.19
2018-12-16T19:35:23.537Z,101301.29
2018-12-16T19:37:51.898Z,101308.45
2018-12-16T19:40:20.239Z,101316.73
2018-12-16T19:42:49.170Z,101311.55
2018-12-16T19:45:17.598Z,101316.47
2018-12-16T19:47:49.567Z,101311.89
2018-12-16T19:50:16.392Z,101316.60
2018-12-16T19:52:44.659Z,101326.16
2018-12-16T19:58:05.700Z,101322.74
2018-12-16T20:00:34.065Z,101322.45
2018-12-16T20:03:02.561Z,101329.55
2018-12-16T20:05:32.959Z,101325.06
2018-12-16T20:08:01.324Z,101325.92
2018-12-16T20:10:29.570Z,101325.20
2018-12-16T20:12:57.896Z,101329.70
2018-12-16T20:15:26.254Z,101332.89
2018-12-16T20:17:54.946Z,101323.13
2018-12-16T20:20:23.243Z,101323.48
2018-12-16T20:22:51.934Z,101327.92
2018-12-16T20:25:20.313Z,101334.72
2018-12-16T20:27:48.635Z,101334.29
2018-12-16T20:30:17.070Z,101336.41
2018-12-16T20:32:45.368Z,101339.21
2018-12-16T20:35:14.020Z,101340.03
2018-12-16T20:37:43.055Z,101351.48
2018-12-16T20:40:11.504Z,101345.30
2018-12-16T20:42:39.933Z,101351.30
2018-12-16T20:45:08.379Z,101351.84
2018-12-16T20:47:36.911Z,101349.66
2018-12-16T20:50:06.800Z,101354.67
2018-12-16T20:52:35.407Z,101358.69
2018-12-16T20:55:05.769Z,101356.09
2018-12-16T20:57:34.365Z,101351.99
2018-12-16T21:00:02.841Z,101358.20
2018-12-16T21:02:34.515Z,101357.95
2018-12-16T21:05:03.115Z,101348.45
2018-12-16T21:07:32.092Z,101358.47
2018-12-16T21:10:01.052Z,101359.63
2018-12-16T21:12:35.107Z,101364.56
2018-12-16T21:15:08.997Z,101361.63
2018-12-16T21:17:43.012Z,101359.63
2018-12-16T21:20:11.765Z,101358.55
2018-12-16T21:22:40.208Z,101360.51
2018-12-16T21:25:08.679Z,101364.35
2018-12-16T21:27:37.450Z,101368.89
2018-12-16T21:30:06.719Z,101367.98
2018-12-16T21:32:35.126Z,101371.97
2018-12-16T21:35:03.728Z,101380.21
2018-12-16T21:37:33.217Z,101390.53
2018-12-16T21:40:01.730Z,101383.28
2018-12-16T21:42:30.394Z,101382.59
2018-12-16T21:44:58.796Z,101384.05
2018-12-16T21:47:27.105Z,101391.27
2018-12-16T21:49:55.418Z,101391.14
2018-12-16T21:52:23.707Z,101382.13
2018-12-16T21:54:52.184Z,101384.72
2018-12-16T21:57:20.495Z,101394.25
2018-12-16T21:59:49.403Z,101392.44
2018-12-16T22:02:17.879Z,101397.07
2018-12-16T22:04:46.315Z,101400.30
2018-12-16T22:07:14.760Z,101403.37
2018-12-16T22:09:43.190Z,101415.03
2018-12-16T22:12:11.601Z,101413.59
2018-12-16T22:14:40.000Z,101408.12
2018-12-16T22:17:08.422Z,101414.93
2018-12-16T22:19:36.790Z,101422.77
2018-12-16T22:22:05.709Z,101416.66
2018-12-16T22:24:34.119Z,101407.98
2018-12-16T22:27:02.515Z,101412.77
2018-12-16T22:29:30.812Z,101421.33
2018-12-16T22:31:59.616Z,101426.17
2018-12-16T22:34:28.810Z,101416.89
2018-12-16T22:36:57.155Z,101420.17
2018-12-16T22:39:25.623Z,101419.48
2018-12-16T22:41:54.794Z,101405.83
2018-12-16T22:44:23.075Z,101407.47
2018-12-16T22:46:52.372Z,101407.73
2018-12-16T22:49:20.797Z,101418.19
2018-12-16T22:51:49.184Z,101422.28
2018-12-16T22:54:17.576Z,101422.75
2018-12-16T22:56:45.995Z,101431.62
2018-12-16T22:59:14.314Z,101429.71
2018-12-16T23:01:42.756Z,101419.83
2018-12-16T23:04:11.440Z,101417.75
2018-12-16T23:06:39.769Z,101413.99
2018-12-16T23:09:08.380Z,101424.02
2018-12-16T23:11:36.696Z,101429.98
2018-12-16T23:14:05.322Z,101430.19
2018-12-16T23:16:33.619Z,101428.41
2018-12-16T23:19:02.023Z,101425.73
2018-12-16T23:21:30.253Z,101419.21
2018-12-16T23:23:58.517Z,101415.71
2018-12-16T23:26:26.913Z,101416.66
2018-12-16T23:28:55.197Z,101415.36
2018-12-16T23:31:23.556Z,101418.30
2018-12-16T23:33:51.840Z,101423.97
2018-12-16T23:36:20.085Z,101423.14
2018-12-16T23:38:48.393Z,101420.98
2018-12-16T23:41:16.692Z,101430.24
2018-12-16T23:43:44.985Z,101439.44
2018-12-16T23:46:13.273Z,101438.45
2018-12-16T23:48:41.497Z,101435.20
2018-12-16T23:51:09.813Z,101439.53
2018-12-16T23:53:38.097Z,101443.42
2018-12-16T23:56:06.510Z,101449.25
2018-12-16T23:58:34.832Z,101443.72
